Terminal Aerodrome Forecast
Issued by NWS

Home | Current Version | Previous Version | Text Only | Print | Product List | Glossary Off
Versions: 1 2 3 4 5 6 7 8 9 10 11 12 13 14

269
FTUS43 KMPX 042334
TAFRWF
TAF
KRWF 042334Z 0500/0524 31007KT P6SM SKC
      TEMPO 0500/0503 OVC018
     FM050600 20005KT 5SM BR SKC
     FM051200 17009KT P6SM OVC090
     FM051900 18010KT 1 1/2SM -SN BR OVC018=

USA.gov is the U.S. government's official web portal to all federal, state and local government web resources and services.